Date,TemperatureHighF,TemperatureAvgF,TemperatureLowF,DewpointHighF,DewpointAvgF,DewpointLowF,HumidityHigh,HumidityAvg,HumidityLow,PressureMaxIn,PressureMinIn,WindSpeedMaxMPH,WindSpeedAvgMPH,GustSpeedMaxMPH,PrecipitationSumIn
2013-1-1,24.7,17.7,15.7,19.5,15.2,13.4,92,90,78,30.70,30.57,7,1,11,0.00
2013-1-2,18.1,15.8,14.5,16.2,13.6,12.1,93,91,90,30.69,30.58,1,0,1,0.00
2013-1-3,22.9,16.6,11.6,15.9,13.0,9.0,93,86,71,30.58,30.41,2,0,3,0.00
2013-1-4,41.5,26.3,19.5,25.2,18.0,13.2,83,71,51,30.53,30.38,12,3,13,0.02
2013-1-5,27.2,22.7,18.2,25.3,20.4,16.3,93,91,82,30.40,30.30,0,0,0,0.00
2013-1-6,41.9,31.7,23.6,30.9,25.9,20.7,90,79,63,30.32,30.15,7,2,9,0.05
2013-1-7,49.6,43.0,35.3,38.6,33.5,27.1,82,69,57,30.16,30.05,21,7,27,0.02
2013-1-8,55.0,45.8,40.9,40.2,36.3,33.1,78,70,55,30.17,29.94,16,3,21,0.00
2013-1-9,49.9,43.1,35.0,35.4,32.1,25.5,75,65,47,29.96,29.70,20,8,28,0.00
2013-1-10,34.8,28.8,23.2,28.6,22.7,18.4,91,78,62,30.08,30.00,4,0,12,0.01
2013-1-11,30.1,23.7,16.5,22.0,17.6,12.3,86,77,62,30.34,30.08,6,1,12,0.00
2013-1-12,28.1,17.8,10.5,18.2,11.9,6.6,86,78,60,30.47,30.34,7,1,10,0.00
2013-1-13,29.8,17.6,6.5,16.7,10.5,2.6,85,74,49,30.56,30.46,3,0,5,0.00
2013-1-14,41.1,25.6,12.6,26.0,14.9,7.0,81,66,39,30.58,30.46,9,3,13,0.00
2013-1-15,49.1,32.1,19.0,27.5,21.4,14.1,86,66,42,30.69,30.56,9,2,11,0.00
2013-1-16,54.7,36.7,24.8,26.0,21.4,17.1,75,56,30,30.67,30.52,7,2,13,0.00
2013-1-17,51.9,37.9,27.2,23.6,20.8,17.7,69,51,31,30.53,30.40,12,5,16,0.00
2013-1-18,48.1,36.7,28.9,23.1,19.4,15.9,61,50,34,30.43,30.34,14,7,18,0.00
2013-1-19,57.7,37.9,27.1,27.5,21.2,17.0,67,53,24,30.44,30.35,12,4,14,0.00
2013-1-20,44.0,32.1,22.9,26.2,21.1,15.7,87,65,40,30.49,30.39,8,2,8,0.00
2013-1-21,48.9,28.2,19.3,25.9,19.6,14.1,89,72,31,30.41,30.27,11,2,14,0.00
2013-1-22,24.8,20.4,16.1,23.1,18.5,13.7,93,92,90,30.32,30.21,6,1,9,0.00
2013-1-23,36.8,26.9,22.4,31.2,24.6,20.7,94,91,79,30.24,30.00,8,2,11,0.00
2013-1-24,54.4,38.9,30.1,39.1,33.4,28.0,94,82,53,30.27,30.14,5,0,7,0.00
2013-1-25,48.3,44.5,39.1,43.4,40.1,37.0,95,85,77,30.17,29.92,6,1,13,0.09
2013-1-26,44.5,37.2,30.7,36.7,27.6,24.5,92,69,51,30.06,29.91,13,2,19,0.05
2013-1-27,40.1,33.4,27.4,28.1,25.6,23.4,86,73,53,30.13,30.05,10,2,13,0.01
2013-1-28,37.7,35.4,31.5,31.8,29.2,26.9,88,78,71,30.15,30.06,14,4,20,0.00
2013-1-29,44.8,40.1,36.8,34.4,32.3,30.6,79,73,65,30.41,30.14,15,7,24,0.00
2013-1-30,48.1,43.5,38.7,36.5,34.1,30.5,80,70,63,30.43,30.38,11,4,17,0.00
2013-1-31,48.6,39.5,31.4,37.4,33.1,28.9,93,78,59,30.40,30.31,3,0,6,0.00
2013-2-1,52.9,37.9,27.1,37.9,31.9,25.1,93,80,51,30.45,30.34,6,1,7,0.00
2013-2-2,44.1,34.3,24.3,34.8,29.5,22.2,94,83,69,30.47,30.33,6,1,7,0.00
2013-2-3,57.4,43.3,31.7,34.7,29.7,25.8,87,62,31,30.34,30.15,9,3,11,0.00
2013-2-4,53.8,43.0,34.1,35.6,30.8,27.9,79,63,42,30.17,30.00,6,0,6,0.00
2013-2-5,48.4,41.9,36.4,33.4,29.7,27.7,71,62,48,30.05,29.92,15,7,22,0.00
2013-2-6,47.8,39.7,32.7,29.7,27.6,26.4,80,63,44,30.12,29.90,7,1,9,0.00
2013-2-7,44.3,36.1,29.4,29.0,25.7,20.5,85,67,42,30.10,29.90,8,1,10,0.00
2013-2-8,41.0,31.5,20.8,26.7,22.5,18.5,94,71,44,30.23,30.10,5,1,8,0.00
2013-2-9,44.1,32.0,19.1,31.4,24.6,15.5,86,75,58,30.29,30.19,6,0,9,0.00
2013-2-10,45.3,34.2,23.4,30.8,25.0,20.9,93,71,45,30.35,30.26,6,0,8,0.00
2013-2-11,49.1,34.3,20.4,34.1,26.2,17.2,89,73,50,30.38,30.25,11,1,14,0.00
2013-2-12,49.9,38.8,29.9,35.7,30.7,26.8,89,74,53,30.45,30.38,13,2,18,0.00
2013-2-13,47.2,38.7,32.8,35.2,31.7,28.4,89,76,60,30.48,30.40,9,1,14,0.00
2013-2-14,55.0,42.1,26.2,39.4,34.2,24.5,94,75,50,30.57,30.47,7,1,8,0.00
2013-2-15,51.9,39.5,28.1,40.1,33.7,26.3,95,81,63,30.54,30.28,7,1,11,0.01
2013-2-16,51.8,39.4,30.8,37.9,30.7,25.4,90,72,47,30.28,30.16,12,4,17,0.00
2013-2-17,45.4,34.9,26.1,26.2,24.3,21.1,83,67,40,30.23,30.10,8,2,11,0.00
2013-2-18,40.2,32.5,25.3,28.9,24.6,21.9,88,73,56,30.10,29.78,4,0,8,0.00
2013-2-19,42.7,31.1,20.1,26.9,22.7,16.9,91,73,51,29.83,29.73,6,2,9,0.00
2013-2-20,43.6,37.9,29.8,27.7,25.6,23.4,84,62,45,30.09,30.01,16,3,16,0.00
2013-2-21,39.9,35.0,27.6,27.6,26.0,22.8,86,70,59,30.19,30.09,15,5,19,0.00
2013-2-22,49.0,39.0,30.2,35.1,29.9,24.8,92,70,53,30.19,29.86,23,5,27,0.00
2013-2-23,40.7,33.3,27.4,28.1,23.9,21.4,86,69,51,30.41,30.02,13,4,19,0.00
2013-2-24,48.3,34.5,22.3,27.4,23.5,17.9,86,66,40,30.45,30.12,4,1,7,0.00
2013-2-25,41.9,35.7,28.3,34.2,27.2,21.1,85,72,54,30.35,30.04,18,5,29,0.01
2013-2-26,50.4,36.8,22.7,24.9,19.3,10.4,85,54,21,30.41,30.26,3,0,11,0.00
2013-2-27,50.9,42.4,30.5,35.0,27.6,19.4,69,56,39,30.34,30.27,3,0,10,0.00
2013-2-28,53.6,45.6,42.5,40.8,35.9,30.8,73,69,61,30.33,30.24,12,2,21,0.00
2013-3-1,64.3,52.9,39.9,39.4,37.0,33.4,84,57,35,30.45,30.28,7,1,18,0.00
2013-3-2,57.7,45.7,37.2,39.4,35.4,31.4,80,68,43,30.28,30.09,11,4,16,0.00
2013-3-3,45.3,36.7,26.3,35.3,21.2,7.7,78,56,23,30.25,30.09,10,2,10,0.00
2013-3-4,46.7,33.3,17.2,24.2,19.9,13.5,87,61,37,30.28,30.01,9,2,12,0.00
2013-3-5,40.7,33.9,26.7,31.1,24.9,19.5,92,70,56,30.02,29.71,8,2,15,0.00
2013-3-6,39.7,34.2,31.3,37.0,30.3,25.0,97,86,65,30.00,29.56,17,2,24,0.07
2013-3-7,48.5,36.6,23.6,31.1,26.2,19.7,87,68,40,30.09,29.99,5,1,15,0.02
2013-3-8,48.1,37.2,28.2,32.8,27.7,23.4,92,70,44,30.22,30.03,8,1,12,0.00
2013-3-9,55.2,39.8,21.0,27.6,21.9,17.3,87,54,26,30.49,30.22,3,0,9,0.00
2013-3-10,60.6,42.8,25.0,39.8,28.3,19.2,79,59,27,30.50,30.35,13,3,17,0.00
2013-3-11,55.4,46.6,37.6,42.5,39.2,34.1,89,76,61,30.39,30.22,10,1,13,0.00
2013-3-12,64.1,48.7,35.2,41.9,36.1,24.3,93,66,25,30.24,30.10,10,2,13,0.00
2013-3-13,68.4,52.2,41.1,41.3,36.2,32.6,75,56,32,30.19,30.09,6,0,6,0.00
2013-3-14,67.8,52.4,40.7,39.1,33.8,23.6,78,53,25,30.16,30.01,15,4,21,0.00
2013-3-15,59.4,49.4,37.8,40.8,36.5,30.1,83,63,33,30.18,30.11,9,2,12,0.00
2013-3-16,52.3,41.1,31.2,36.9,31.9,28.5,91,71,45,30.12,29.93,21,6,29,0.01
2013-3-17,41.7,35.7,30.6,29.0,23.7,18.7,79,62,46,30.24,30.04,15,6,23,0.00
2013-3-18,52.5,39.1,24.8,28.0,24.7,18.8,82,59,27,30.27,30.16,7,1,13,0.00
2013-3-19,46.5,37.2,28.6,34.7,27.5,22.8,89,69,47,30.20,29.79,6,1,9,0.05
2013-3-20,52.9,45.9,37.3,42.8,38.2,29.5,93,75,55,29.89,29.60,21,8,26,0.09
2013-3-21,42.4,36.4,29.1,28.9,25.3,22.9,84,65,50,30.25,30.18,17,7,25,0.00
2013-3-22,41.5,32.5,24.8,25.0,20.8,14.0,88,64,37,30.38,30.24,12,3,22,0.00
2013-3-23,44.3,34.4,24.6,25.5,21.5,16.3,84,61,37,30.38,30.26,4,1,9,0.00
2013-3-24,46.2,36.3,25.3,27.9,23.8,18.6,79,61,46,30.30,30.15,8,2,11,0.00
2013-3-25,50.0,41.4,30.6,32.2,28.3,24.5,79,60,50,30.16,29.94,10,2,12,0.00
2013-3-26,50.6,44.2,38.2,38.7,35.5,29.4,86,72,58,30.00,29.93,6,1,8,0.00
2013-3-27,57.9,44.9,32.1,44.1,38.2,30.3,95,79,50,30.00,29.90,9,1,13,0.01
2013-3-28,58.5,47.7,39.4,44.9,41.9,37.5,95,81,51,30.11,29.99,10,1,12,0.03
2013-3-29,65.5,52.3,42.5,46.8,43.8,40.9,95,75,45,30.20,30.11,6,1,9,0.06
2013-3-30,67.7,52.1,34.4,47.9,41.9,32.6,95,71,45,30.21,30.03,8,3,12,0.00
2013-3-31,66.8,52.8,36.1,43.5,39.5,33.7,93,63,39,30.05,29.86,11,3,18,0.00
2013-4-1,63.8,51.6,37.8,46.3,42.2,36.2,96,72,46,30.10,29.92,11,2,14,0.00
2013-4-2,66.8,50.5,36.7,42.8,39.3,34.3,92,69,40,30.16,30.07,12,2,18,0.00
2013-4-3,66.6,52.1,34.0,42.1,36.5,31.7,94,60,29,30.15,29.93,6,1,10,0.00
2013-4-4,66.0,52.0,42.4,46.1,41.9,39.7,90,69,41,29.93,29.64,22,4,26,0.04
2013-4-5,57.1,48.1,39.9,41.8,39.3,36.7,92,73,48,29.95,29.86,14,3,15,0.04
2013-4-6,54.0,46.9,42.4,40.6,37.1,34.8,82,69,50,29.97,29.75,18,7,28,0.03
2013-4-7,47.6,42.7,33.1,39.3,33.0,27.3,82,69,47,29.87,29.62,26,8,39,0.05
2013-4-8,49.9,39.4,28.8,30.2,27.8,24.8,86,65,45,30.27,29.87,8,2,14,0.00
2013-4-9,59.3,44.0,25.6,36.2,29.7,22.8,90,62,29,30.37,30.26,4,0,7,0.00
2013-4-10,60.8,49.7,41.6,44.7,36.1,30.7,72,60,36,30.27,30.06,23,6,26,0.00
2013-4-11,53.7,44.3,32.2,33.0,30.0,27.2,85,58,42,30.25,30.13,10,2,19,0.00
2013-4-12,62.6,43.9,26.7,37.4,27.9,14.2,88,60,15,30.16,29.77,22,6,27,0.00
2013-4-13,47.3,41.2,33.9,34.3,24.6,18.5,69,52,35,30.05,29.77,22,9,32,0.00
2013-4-14,48.1,35.8,26.8,32.0,25.8,20.2,94,68,38,30.06,29.89,9,1,13,0.00
2013-4-15,42.4,35.1,31.7,35.0,31.7,28.8,96,87,68,30.16,29.91,10,2,15,0.12
2013-4-16,45.8,37.4,29.7,34.8,29.0,23.8,95,74,42,30.40,30.16,7,2,15,0.01
2013-4-17,51.5,39.5,25.9,30.5,25.6,16.5,91,62,29,30.50,30.40,6,1,13,0.00
2013-4-18,61.3,48.0,34.4,41.2,35.2,28.4,81,62,45,30.44,30.27,8,2,12,0.00
2013-4-19,57.1,50.7,43.2,41.7,39.0,35.3,75,65,48,30.27,30.10,16,6,24,0.01
2013-4-20,59.7,48.3,36.5,36.2,34.4,31.7,85,61,37,30.25,30.16,14,4,17,0.00
2013-4-21,59.3,46.8,32.5,41.2,36.0,29.3,89,68,48,30.22,30.14,14,5,23,0.00
2013-4-22,52.9,44.4,35.3,35.5,27.5,18.1,87,55,28,30.42,30.22,10,3,18,0.00
2013-4-23,62.2,44.6,22.4,23.7,17.0,5.9,74,39,11,30.42,30.14,15,3,22,0.00
2013-4-24,71.5,55.4,35.6,26.8,21.3,17.7,51,28,13,30.32,30.01,3,1,7,0.00
2013-4-25,72.6,55.3,35.2,38.4,29.6,21.8,60,40,22,30.11,29.99,13,3,16,0.00
2013-4-26,77.9,60.3,37.4,41.4,34.3,25.7,77,42,15,30.20,30.11,8,1,11,0.00
2013-4-27,73.3,59.7,44.3,37.0,33.4,27.1,66,40,20,30.20,30.07,18,6,22,0.00
2013-4-28,63.9,55.2,46.9,38.8,33.8,29.3,64,46,28,30.14,30.02,17,7,25,0.00
2013-4-29,55.3,50.4,37.9,41.0,32.6,22.7,69,52,33,30.06,29.93,22,12,30,0.00
2013-4-30,50.6,39.8,26.4,25.3,23.2,19.5,81,53,31,30.42,30.06,14,3,22,0.00
2013-5-1,60.5,45.6,24.1,27.7,23.6,17.1,81,47,21,30.56,30.42,7,2,14,0.00
2013-5-2,72.2,56.6,34.1,31.5,26.4,14.5,63,34,11,30.54,30.22,10,3,14,0.00
2013-5-3,70.1,58.1,39.1,37.1,32.2,26.7,62,39,25,30.24,30.12,10,3,17,0.00
2013-5-4,70.2,57.8,39.6,37.9,32.9,29.3,69,42,23,30.14,29.90,26,10,37,0.00
2013-5-5,73.4,62.1,47.7,37.9,35.2,31.9,55,38,26,29.90,29.71,17,8,22,0.00
2013-5-6,80.9,66.1,46.1,43.7,37.6,33.2,67,38,20,29.81,29.67,15,4,23,0.00
2013-5-7,81.1,65.4,49.7,47.6,43.4,34.2,80,49,22,29.88,29.73,11,2,18,0.00
2013-5-8,82.4,64.7,46.1,52.3,45.0,29.9,85,54,15,29.99,29.88,12,2,16,0.02
2013-5-9,84.4,66.6,48.5,50.9,46.2,35.8,88,53,18,30.06,29.96,12,2,16,0.00
2013-5-10,89.4,69.3,49.6,53.2,46.7,40.7,79,49,20,30.11,30.00,9,2,20,0.00
2013-5-11,89.8,72.5,52.8,55.4,50.7,47.4,82,50,24,30.10,29.91,10,1,21,0.00
2013-5-12,82.3,70.2,56.6,52.9,49.4,43.5,81,51,27,29.97,29.88,17,3,24,0.00
2013-5-13,66.8,58.1,48.6,50.4,44.1,36.2,87,61,39,30.10,29.92,24,7,31,0.00
2013-5-14,66.8,54.6,38.7,40.3,36.7,33.3,85,54,32,30.13,30.00,7,2,12,0.00
2013-5-15,64.1,52.3,40.5,48.1,39.1,33.6,81,62,38,30.05,29.94,14,2,18,0.01
2013-5-16,64.7,55.5,47.7,47.8,43.9,39.6,92,67,42,29.99,29.84,15,2,19,0.08
2013-5-17,62.1,52.0,45.9,45.4,40.1,35.4,93,66,39,30.04,29.91,14,3,18,0.01
2013-5-18,60.6,49.4,36.4,44.0,38.5,33.0,89,68,48,30.22,30.04,14,3,17,0.01
2013-5-19,66.4,51.7,36.3,42.8,38.1,32.8,89,62,38,30.32,30.23,13,3,18,0.00
2013-5-20,76.7,58.4,33.3,45.4,36.2,30.4,90,50,20,30.29,29.83,10,2,13,0.00
2013-5-21,58.0,48.7,36.8,39.2,33.2,27.0,72,56,37,29.90,29.67,25,10,28,0.00
2013-5-22,47.6,41.5,31.9,33.5,29.0,23.7,73,61,52,29.98,29.90,16,5,18,0.00
2013-5-23,59.2,46.9,31.8,37.8,31.4,26.4,86,57,29,30.01,29.93,13,2,19,0.02
2013-5-24,59.9,48.6,38.7,37.6,34.1,29.2,91,61,33,30.03,29.95,15,4,19,0.00
2013-5-25,67.2,51.3,31.7,46.4,36.7,28.0,89,62,31,30.04,29.90,7,1,9,0.04
2013-5-26,64.8,53.6,44.5,47.7,42.9,36.2,96,70,37,29.99,29.91,16,5,22,0.07
2013-5-27,63.0,50.3,40.6,50.2,43.8,37.1,90,79,54,29.97,29.75,16,2,18,0.18
2013-5-28,64.8,55.7,46.6,44.0,39.7,36.6,78,57,37,29.86,29.70,18,6,21,0.00
2013-5-29,60.5,52.0,45.8,46.3,41.9,35.9,95,70,46,29.98,29.63,25,8,29,0.17
2013-5-30,64.1,51.1,38.4,39.6,35.5,29.1,82,57,32,30.18,29.98,10,3,13,0.00
2013-5-31,69.2,55.0,33.3,41.1,37.3,30.7,91,55,30,30.28,30.16,8,3,13,0.00
2013-6-1,75.8,61.4,42.3,49.0,41.5,28.4,84,52,21,30.19,29.93,10,3,17,0.00
2013-6-3,75.8,67.9,51.4,43.8,37.0,27.5,68,34,19,30.03,29.92,11,4,15,0.00
2013-6-4,78.6,64.2,42.2,43.9,36.9,28.1,70,39,19,30.05,29.94,10,3,13,0.00
2013-6-5,86.1,70.3,49.4,51.5,43.5,37.9,68,41,21,30.01,29.84,8,3,11,0.00
2013-6-6,86.5,71.2,51.8,52.0,47.3,43.6,77,46,23,29.92,29.80,11,3,15,0.00
2013-6-7,86.0,70.4,53.3,51.2,47.8,43.8,76,47,27,29.97,29.87,13,3,21,0.00
2013-6-8,86.3,69.3,48.4,48.3,43.0,27.7,86,45,15,30.00,29.89,13,2,17,0.00
2013-6-9,81.7,67.3,53.4,49.4,41.8,34.0,68,42,20,29.93,29.77,12,4,18,0.00
2013-6-10,78.0,61.4,38.9,40.7,36.1,31.4,78,43,19,29.84,29.69,10,3,15,0.00
2013-6-11,64.6,54.8,44.8,40.6,36.1,32.2,75,51,32,30.06,29.81,19,8,24,0.00
2013-6-12,63.3,51.2,36.2,38.9,36.8,31.9,85,60,38,30.09,30.03,9,2,13,0.00
2013-6-13,62.0,55.1,46.5,41.8,38.5,36.7,81,55,40,30.23,30.11,20,9,24,0.01
2013-6-14,74.8,57.7,36.7,41.7,35.6,29.9,88,50,20,30.24,29.95,9,2,11,0.00
2013-6-15,82.5,65.4,41.8,48.5,39.5,33.3,78,43,18,29.95,29.78,8,2,12,0.00
2013-6-16,81.1,66.1,50.4,51.5,46.4,42.0,76,51,28,30.00,29.85,15,2,19,0.00
2013-6-17,78.6,64.1,46.8,51.9,46.9,43.2,88,56,32,30.00,29.80,12,2,18,0.01
2013-6-18,62.4,56.0,48.6,49.5,44.8,37.4,83,67,43,29.89,29.81,11,2,13,0.01
2013-6-19,63.5,53.9,47.7,40.6,39.1,37.0,73,58,40,30.03,29.86,21,9,28,0.00
2013-6-20,67.1,54.1,38.6,40.7,37.2,33.5,82,55,30,30.08,29.98,13,5,19,0.00
2013-6-21,61.4,53.5,43.9,44.4,41.5,37.3,86,65,47,30.11,30.06,6,1,12,0.01
2013-6-22,80.2,62.0,39.3,44.5,41.2,36.3,91,52,25,30.10,29.82,9,1,16,0.00
2013-6-23,66.4,62.3,59.5,48.7,45.5,42.9,66,55,43,29.82,29.71,2,0,2,0.00
2013-6-24,64.6,58.6,49.9,51.2,48.6,46.3,90,70,54,29.69,29.65,2,0,5,0.09
2013-6-25,67.9,59.3,52.8,55.4,51.0,48.9,93,75,56,29.84,29.66,6,0,8,0.07
2013-6-26,70.4,60.7,53.4,56.4,52.7,49.8,90,76,54,30.02,29.84,7,1,9,0.02
2013-6-27,83.5,68.6,50.4,58.0,54.7,48.3,95,65,39,30.09,30.01,11,3,16,0.00
2013-6-28,91.1,75.2,56.0,62.8,57.8,53.4,93,59,30,30.11,29.90,10,3,15,0.00
2013-6-29,88.3,76.8,63.6,63.1,59.0,54.8,83,56,35,29.95,29.84,10,4,13,0.00
2013-6-30,95.3,79.0,58.3,60.8,56.9,52.8,83,50,28,29.92,29.73,16,5,19,0.00
2013-7-1,97.3,84.6,73.8,65.6,58.7,55.0,65,43,26,29.85,29.75,10,3,11,0.00
2013-7-2,102.7,83.3,64.3,66.5,60.4,50.3,85,51,18,29.91,29.80,14,4,18,0.00
2013-7-3,90.1,77.4,62.2,59.6,52.5,35.9,77,45,22,29.93,29.82,12,3,17,0.00
2013-7-4,82.7,70.6,53.0,45.0,39.6,35.3,59,34,20,29.91,29.80,14,4,21,0.00
2013-7-8,86.0,80.1,67.5,49.7,42.3,36.9,48,28,19,29.95,29.87,8,4,11,0.00
2013-7-9,93.5,75.9,53.5,53.8,47.0,44.1,72,40,20,29.99,29.82,9,2,12,0.00
2013-7-10,93.3,76.4,58.3,53.8,48.1,38.9,72,41,17,29.90,29.71,16,4,18,0.00
2013-7-11,81.4,71.9,59.3,48.1,40.9,29.7,61,34,21,29.84,29.75,12,4,18,0.00
2013-7-12,80.5,63.9,45.9,43.1,34.3,28.7,60,36,17,29.98,29.82,14,3,17,0.00
2013-7-13,79.4,63.8,41.7,42.9,37.1,27.1,83,43,16,30.07,29.95,11,2,16,0.01
2013-7-14,88.9,71.3,48.3,46.8,35.4,24.5,54,29,16,30.05,29.83,9,2,13,0.00
2013-7-15,87.4,71.6,53.5,43.3,39.7,36.7,63,34,18,29.89,29.71,14,5,17,0.00
2013-7-16,85.0,73.3,62.5,51.8,41.8,36.8,52,33,23,29.83,29.72,10,4,16,0.00
2013-7-17,91.1,75.3,55.3,50.1,42.3,32.7,63,35,15,30.00,29.83,12,3,20,0.00
2013-7-18,92.2,75.6,51.7,48.7,41.7,32.6,70,35,14,30.04,29.87,12,3,16,0.00
2013-7-19,94.0,76.8,53.3,43.3,33.9,18.3,68,25,8,29.98,29.82,10,3,13,0.00
2013-7-20,94.8,76.5,54.5,44.0,26.7,13.1,65,21,6,29.88,29.75,11,3,15,0.00
2013-7-21,94.2,75.2,50.1,46.6,31.5,13.5,59,24,6,29.81,29.71,11,2,14,0.00
2013-7-22,94.2,76.2,53.5,41.9,37.7,29.3,61,29,12,29.86,29.78,10,2,14,0.00
2013-7-23,96.4,77.3,53.6,46.7,34.7,15.9,52,25,7,29.91,29.78,8,2,12,0.00
2013-7-24,94.7,78.7,59.9,47.1,35.5,19.1,46,24,7,29.90,29.81,8,2,11,0.00
2013-7-25,95.8,78.9,54.9,46.9,37.1,21.2,59,27,9,29.94,29.85,12,4,20,0.00
2013-7-26,96.0,79.1,61.1,36.3,27.5,4.6,32,17,4,29.97,29.86,13,4,18,0.00
2013-7-27,86.1,71.9,51.7,41.5,34.9,24.5,50,28,11,29.98,29.81,14,3,19,0.00
2013-7-28,83.5,67.7,48.6,45.1,37.3,31.2,63,36,17,29.88,29.76,11,2,17,0.00
2013-7-29,85.8,68.6,46.5,47.6,40.1,33.4,77,40,16,29.90,29.77,9,1,11,0.00
2013-7-30,86.6,70.5,48.2,51.8,40.4,27.3,77,40,13,30.00,29.90,6,2,9,0.00
2013-7-31,84.8,70.1,57.5,52.8,46.5,35.3,68,46,18,29.99,29.84,17,1,22,0.02
2013-8-1,75.0,62.7,52.8,56.3,51.2,44.6,88,67,45,29.99,29.85,17,4,23,0.05
2013-8-2,78.1,61.6,45.1,48.6,45.4,40.2,87,59,32,30.05,29.95,13,2,19,0.01
2013-8-3,85.6,67.7,45.6,49.4,42.8,32.6,87,48,15,30.05,29.89,9,2,13,0.00
2013-8-4,89.3,72.8,52.0,55.1,47.4,39.2,76,45,21,29.96,29.79,8,3,11,0.00
2013-8-5,91.1,74.7,55.2,55.2,48.8,38.1,77,44,16,29.90,29.77,10,2,15,0.00
2013-8-6,93.8,75.6,53.3,51.5,45.3,34.8,77,40,13,29.90,29.77,6,2,14,0.00
2013-8-7,88.9,73.5,54.2,49.0,42.8,36.9,62,35,17,29.89,29.80,17,3,20,0.00
2013-8-8,87.1,73.6,57.3,54.0,47.2,38.3,67,42,18,29.88,29.75,8,1,10,0.00
2013-8-9,88.1,71.0,58.7,56.9,50.6,43.0,84,52,22,29.86,29.68,14,2,14,0.10
2013-8-10,78.6,61.5,49.2,54.3,51.1,46.4,91,71,40,29.99,29.84,16,2,20,0.01
2013-8-11,81.9,66.6,50.8,53.9,49.3,45.2,88,58,30,30.01,29.87,10,2,12,0.00
2013-8-12,86.3,69.3,51.8,54.0,49.9,42.4,89,55,22,29.94,29.84,16,3,16,0.00
2013-8-13,89.6,71.9,50.5,51.8,48.1,42.9,84,48,20,29.99,29.82,8,2,10,0.00
2013-8-14,89.8,77.0,61.5,52.7,48.8,45.2,63,39,22,29.88,29.75,11,3,18,0.00
2013-8-15,89.1,71.8,53.0,56.9,49.9,44.1,75,49,24,29.88,29.77,11,2,17,0.00
2013-8-16,85.9,72.1,57.6,63.1,56.3,52.5,85,60,37,29.93,29.83,12,1,15,0.01
2013-8-17,86.9,71.2,56.1,57.9,54.3,49.4,89,59,28,29.97,29.85,12,2,15,0.00
2013-8-18,87.5,71.2,50.6,56.4,50.7,46.4,91,53,26,30.02,29.89,9,2,15,0.00
2013-8-19,88.2,71.6,51.7,53.3,49.9,44.9,80,49,26,29.99,29.86,11,4,15,0.00
2013-8-20,84.5,69.9,50.0,51.9,39.3,13.6,85,42,7,30.00,29.87,9,3,14,0.00
2013-8-21,86.1,69.5,51.2,46.0,38.8,34.0,54,35,18,29.97,29.83,8,2,12,0.00
2013-8-22,81.3,66.9,56.5,59.0,46.9,36.2,86,52,25,29.89,29.77,16,1,19,0.05
2013-8-23,82.3,68.2,54.6,54.3,51.1,44.2,87,59,28,29.84,29.73,13,3,18,0.00
2013-8-24,82.0,64.8,52.7,57.7,50.6,42.1,84,64,28,29.82,29.69,12,2,19,0.12
2013-8-25,71.9,61.0,55.5,58.3,54.5,51.7,90,80,61,29.83,29.76,17,0,17,0.00
2013-8-26,76.6,68.7,57.6,55.7,51.5,48.5,84,56,39,29.91,29.86,7,2,28,0.20
2013-8-27,82.7,65.6,47.0,56.6,51.2,44.8,93,64,32,29.92,29.70,7,2,11,0.09
2013-8-28,86.7,70.7,53.9,57.0,52.4,45.8,90,57,25,29.81,29.72,12,2,14,0.05
2013-8-29,84.2,69.3,58.6,57.1,54.9,51.1,87,63,33,29.98,29.78,16,2,22,0.01
2013-8-30,81.4,68.7,54.2,55.7,53.0,49.2,92,60,33,30.06,29.92,11,2,16,0.00
2013-8-31,85.1,69.6,51.9,57.7,53.6,49.6,93,61,34,29.98,29.76,10,3,15,0.00
2013-9-1,93.8,73.8,55.1,55.4,48.6,31.2,78,47,11,29.80,29.61,9,2,15,0.00
2013-9-2,83.9,69.0,55.0,55.5,52.0,46.4,83,58,28,29.82,29.68,9,2,14,0.00
2013-9-3,85.0,67.0,50.9,55.2,51.0,40.4,92,61,22,29.90,29.80,10,2,12,0.00
2013-9-4,86.5,66.4,49.0,54.4,50.1,42.1,91,61,22,29.94,29.82,10,2,14,0.00
2013-9-5,73.4,59.8,50.8,53.4,49.5,45.3,91,70,43,30.01,29.79,23,4,25,0.00
2013-9-6,69.3,59.3,50.7,54.1,49.5,45.3,92,71,52,30.09,30.00,14,4,18,0.14
2013-9-7,75.7,60.9,43.4,54.8,49.7,42.0,95,69,40,30.08,29.92,10,2,18,0.00
2013-9-8,76.3,63.9,48.3,54.3,50.3,45.8,92,64,39,30.03,29.95,9,2,14,0.00
2013-9-9,83.7,68.7,50.1,50.2,46.5,43.3,80,50,26,30.00,29.84,9,2,11,0.00
2013-9-10,85.9,69.8,50.8,51.7,47.2,42.3,73,47,24,29.92,29.80,11,2,16,0.00
2013-9-11,87.9,71.7,52.0,53.0,48.4,43.7,74,46,25,29.96,29.84,11,2,17,0.00
2013-9-12,90.2,78.6,61.1,53.7,47.7,38.5,58,35,23,29.91,29.76,8,2,12,0.00
2013-9-13,83.4,71.3,56.3,52.1,45.6,38.4,60,41,27,29.82,29.69,6,0,8,0.00
2013-9-14,88.1,72.3,52.7,54.1,50.0,44.3,80,49,26,29.78,29.62,11,2,13,0.00
2013-9-15,92.5,71.1,55.6,57.0,49.0,35.7,77,50,14,29.74,29.49,18,3,28,0.01
2013-9-16,71.5,59.5,46.7,50.0,46.9,43.3,89,65,41,29.86,29.74,11,3,14,0.00
2013-9-17,62.6,54.5,48.2,51.6,44.9,40.3,85,71,47,29.95,29.76,17,3,21,0.01
2013-9-18,68.1,55.5,45.8,43.0,40.1,36.5,83,59,33,30.05,29.95,10,3,14,0.00
2013-9-19,75.7,57.2,36.8,44.0,38.6,32.6,85,54,27,30.03,29.78,13,5,15,0.00
2013-9-20,77.2,57.9,39.4,49.7,40.1,33.1,85,55,24,29.79,29.53,16,3,19,0.04
2013-9-21,67.4,55.7,47.1,47.6,43.7,40.8,80,65,39,29.73,29.61,13,3,16,0.04
2013-9-22,66.4,52.1,41.5,49.5,42.5,38.5,90,71,42,29.84,29.68,16,4,21,0.02
2013-9-23,63.2,54.6,45.0,45.5,42.1,38.1,81,63,48,29.95,29.83,18,5,18,0.00
2013-9-24,53.9,49.5,43.8,45.8,42.7,37.5,93,78,62,29.92,29.81,13,3,17,0.13
2013-9-25,55.8,45.9,38.6,43.5,38.2,35.1,88,75,56,29.98,29.80,10,3,13,0.11
2013-9-26,57.5,44.4,32.5,44.8,36.3,30.7,94,75,50,30.16,29.98,11,2,14,0.05
2013-9-27,61.9,47.6,35.0,47.7,38.9,31.2,92,73,36,30.17,29.98,13,2,16,0.03
2013-9-28,64.6,56.2,46.1,51.6,48.0,42.7,90,75,54,29.99,29.52,23,8,27,0.15
2013-9-29,55.0,49.1,43.8,49.7,43.0,38.4,92,80,60,29.71,29.47,22,6,23,0.31
2013-9-30,57.3,48.4,41.7,49.1,37.6,33.1,90,67,52,29.99,29.58,23,11,28,0.21
2013-10-1,53.0,44.9,35.3,41.8,36.2,31.5,89,72,50,30.20,29.98,17,3,18,0.06
2013-10-2,50.6,39.5,29.3,38.2,33.0,26.7,93,79,54,30.20,30.06,13,3,13,0.05
2013-10-3,52.8,42.9,32.6,38.5,35.2,30.8,95,76,53,30.44,30.16,6,1,9,0.04
2013-10-4,59.8,41.9,28.4,38.5,25.1,-99.9,95,64,38,30.53,30.40,6,-63,10,0.00
2013-10-5,72.4,50.3,31.4,41.6,33.5,28.1,89,58,21,30.43,30.21,10,4,13,0.00
2013-10-6,76.9,55.4,33.5,42.0,33.8,29.4,85,50,20,30.23,29.96,10,2,11,0.00
2013-10-7,56.4,50.5,44.3,41.3,36.4,31.3,72,59,48,30.08,29.90,19,7,24,0.00
2013-10-8,52.5,40.4,37.0,38.4,22.5,-99.9,82,64,56,30.08,29.93,15,-92,19,0.00
2013-10-9,46.7,32.1,36.1,37.8,4.5,-99.9,88,61,69,30.07,29.98,8,-227,9,0.00
2013-10-10,58.6,49.6,34.2,38.4,35.8,32.1,92,60,43,30.05,29.93,10,2,13,0.00
2013-10-11,57.3,38.9,30.5,39.2,14.8,-99.9,92,58,48,30.12,30.04,7,-156,8,0.00
2013-10-12,50.4,35.7,33.6,40.0,11.6,-99.9,93,64,56,30.16,30.02,8,-184,10,0.00
2013-10-13,54.1,37.5,37.4,40.9,10.3,-99.9,89,58,54,30.31,30.15,7,-201,10,0.00
2013-10-14,56.1,36.7,27.8,38.6,7.4,-99.9,94,52,46,30.41,30.30,9,-193,12,0.01
2013-10-15,61.3,37.3,27.0,36.4,4.8,-99.9,88,46,35,30.41,30.17,8,-205,11,0.00
2013-10-16,59.1,39.0,31.2,37.0,6.7,-99.9,81,46,35,30.18,30.11,9,-183,16,0.00
2013-10-17,59.1,39.9,29.9,38.3,11.1,-99.9,88,51,39,30.27,30.19,8,-176,12,0.00
2013-10-18,61.2,38.9,29.7,41.0,9.2,-99.9,90,52,43,30.29,30.16,6,-200,8,0.00
2013-10-19,74.6,44.2,33.4,40.7,4.5,-99.9,86,37,21,30.19,30.05,11,-227,13,0.00
2013-10-20,67.6,43.4,33.8,40.4,7.9,-99.9,79,40,34,30.16,30.08,6,-204,9,0.00
2013-10-21,69.8,43.1,35.0,42.6,6.4,-99.9,83,41,34,30.17,30.07,8,-232,11,0.00
2013-10-22,67.1,41.3,35.8,43.5,3.9,-99.9,86,42,39,30.15,30.01,8,-252,9,0.00
2013-10-23,64.2,41.5,36.7,44.2,8.3,-99.9,88,48,42,30.09,30.00,8,-227,10,0.00
2013-10-24,63.6,40.3,33.3,45.5,7.6,-99.9,93,50,48,30.11,30.01,7,-237,10,0.00
2013-10-25,65.2,41.1,35.1,44.5,6.4,-99.9,90,46,40,30.23,30.11,7,-231,12,0.00
2013-10-26,61.4,39.2,32.4,41.9,5.5,-99.9,87,48,44,30.25,30.09,10,-237,13,0.00
2013-10-27,50.9,32.4,32.7,44.1,5.0,-99.9,100,65,66,30.10,29.72,15,-238,20,0.17
2013-10-28,42.2,25.8,31.8,40.9,-13.0,-99.9,96,45,56,29.98,29.76,21,-312,24,0.03
2013-10-29,45.7,34.8,25.4,26.7,21.8,-99.9,81,62,43,30.11,29.98,2,-12,4,0.00
2013-10-30,56.2,34.7,25.4,34.4,26.1,21.2,85,72,44,30.20,30.10,5,2,7,0.00
2013-11-12,62.1,51.4,40.4,48.5,44.0,38.3,92,76,59,30.40,30.31,5,0,9,0.01
2013-11-13,55.9,43.8,31.8,42.5,37.4,28.7,97,80,52,30.47,30.28,3,0,6,0.01
2013-11-14,43.1,34.9,27.1,32.8,28.9,24.2,91,79,63,30.28,30.09,6,1,7,0.00
2013-11-15,43.0,35.5,25.0,32.0,27.7,22.7,99,74,59,30.09,29.57,22,6,31,0.00
2013-11-16,44.4,40.8,37.5,33.4,31.3,28.9,81,69,58,29.85,29.51,20,10,25,0.00
2013-11-17,52.3,40.7,32.8,34.3,30.8,27.8,83,68,47,30.03,29.85,15,4,19,0.00
2013-11-18,50.5,42.2,32.5,38.7,31.9,27.2,81,68,51,30.02,29.80,9,3,19,0.00
2013-11-19,51.4,46.3,39.7,45.1,40.2,34.9,88,79,69,29.84,29.74,11,4,15,0.04
2013-11-20,39.4,31.1,20.8,35.9,17.1,2.3,87,58,36,30.46,29.84,13,7,18,0.00
2013-11-21,31.6,22.8,14.0,9.9,6.2,1.5,69,50,32,30.78,30.46,7,2,11,0.00
2013-11-22,31.7,19.8,7.4,14.6,8.7,1.4,79,63,46,30.84,30.74,7,2,10,0.00
2013-11-23,34.8,21.2,8.8,18.0,12.5,4.8,86,70,48,30.74,30.46,4,1,5,0.00
2013-11-24,44.2,27.3,12.4,23.6,16.6,8.2,84,66,43,30.46,30.34,7,2,10,0.00
2013-11-25,42.4,28.5,17.6,24.6,18.9,13.0,84,68,46,30.51,30.42,6,1,8,0.00
2013-11-26,42.0,28.3,18.7,25.8,20.4,14.1,85,73,49,30.44,30.26,3,0,5,0.00
2013-11-27,37.9,29.2,22.2,27.2,22.5,17.6,87,76,64,30.26,30.14,7,1,11,0.00
2013-11-28,41.9,28.0,16.6,28.0,22.0,14.1,92,79,55,30.31,30.21,5,1,6,0.00
2013-11-29,56.7,37.4,21.5,31.8,26.5,18.2,89,67,37,30.37,30.28,4,0,8,0.00
2013-11-30,57.7,46.2,37.3,38.1,32.9,25.6,79,61,40,30.37,30.23,8,1,11,0.00
2013-12-1,59.7,52.3,40.9,44.9,41.3,33.2,81,66,58,30.23,29.84,25,13,30,0.00
2013-12-2,47.3,37.8,28.1,41.7,31.3,19.9,91,78,53,29.98,29.76,20,6,28,0.32
2013-12-3,30.3,22.4,12.8,24.4,15.9,7.1,91,76,55,30.32,29.98,12,3,16,0.00
2013-12-4,20.9,13.7,4.4,11.1,6.5,-0.1,87,73,57,30.44,30.32,6,1,7,0.00
2013-12-5,23.5,10.9,-1.3,12.0,4.5,-5.5,83,75,57,30.43,30.30,6,3,8,0.00
2013-12-6,13.3,10.8,8.6,11.0,7.7,5.4,92,87,83,30.33,30.12,12,5,16,0.00
2013-12-7,10.8,3.3,-12.7,7.9,-2.0,-17.4,88,79,55,30.59,30.18,15,5,20,0.00
2013-12-8,16.0,-2.0,-15.1,11.5,-6.4,-19.7,92,81,60,30.82,30.58,6,2,9,0.00
2013-12-9,28.0,14.3,-0.1,20.9,8.1,-4.1,92,77,47,30.82,30.58,12,5,18,0.00
2013-12-10,29.5,19.8,11.1,22.3,14.8,6.1,89,81,71,30.59,30.50,5,1,6,0.00
2013-12-11,40.2,27.5,13.2,27.8,20.1,10.6,90,74,57,30.53,30.36,10,4,14,0.00
2013-12-12,43.4,35.4,27.5,26.2,22.7,16.6,74,60,47,30.36,30.17,11,3,15,0.00
2013-12-13,49.2,34.7,27.2,35.6,28.6,23.3,91,79,58,30.49,30.25,6,1,10,0.00
2013-12-14,47.2,37.9,28.1,32.3,28.7,24.6,91,71,49,30.51,30.43,13,6,15,0.00
2013-12-15,56.5,43.9,32.6,41.3,33.1,28.9,90,67,43,30.45,30.35,10,2,11,0.00
2013-12-16,54.2,37.4,26.0,36.0,29.4,22.9,92,75,43,30.48,30.35,8,1,10,0.00
2013-12-17,58.4,42.8,34.0,32.0,27.9,25.1,74,57,35,30.35,30.10,10,4,12,0.00
2013-12-18,43.9,37.9,32.3,34.5,30.1,25.8,84,74,66,30.10,29.93,9,2,12,0.01
2013-12-19,32.6,27.2,19.3,25.4,15.6,11.7,77,62,44,30.30,30.03,9,3,14,0.00
2013-12-20,44.5,32.6,20.7,38.2,25.1,11.8,85,74,57,30.23,29.89,16,6,20,0.01
2013-12-21,49.7,44.2,39.8,37.8,35.8,33.7,82,73,59,30.16,29.90,19,6,23,0.00
2013-12-22,52.5,45.0,38.1,39.1,36.4,33.7,85,72,57,30.33,30.15,11,3,15,0.00
2013-12-23,54.9,44.7,36.9,42.3,35.4,29.7,83,70,56,30.48,30.25,17,4,19,0.00
2013-12-24,48.1,34.9,25.1,33.5,28.9,23.4,94,79,54,30.58,30.48,9,1,10,0.00
2013-12-25,49.2,37.4,29.7,31.3,27.0,22.9,83,67,45,30.53,30.42,11,5,14,0.00
2013-12-26,58.2,40.2,30.5,31.8,27.7,24.8,80,63,34,30.42,30.28,10,3,15,0.00
2013-12-27,51.7,40.5,33.1,28.9,25.5,22.6,72,56,32,30.32,30.16,10,4,16,0.00
2013-12-28,43.6,32.4,23.6,28.9,24.8,19.5,88,74,48,30.53,30.31,5,1,9,0.00
2013-12-29,47.2,33.6,23.4,26.4,22.0,18.7,87,64,39,30.52,30.34,10,3,13,0.00
2013-12-30,49.2,40.8,34.0,30.0,26.5,23.9,71,57,40,30.34,30.20,10,3,12,0.00
2013-12-31,51.2,42.6,38.0,31.6,28.5,25.8,70,58,43,30.35,30.22,6,1,12,0.00
2014-1-1,50.0,36.2,26.1,34.9,29.1,22.5,89,76,54,30.42,30.33,5,1,8,0.00
2014-1-2,55.1,42.7,27.1,34.6,30.1,24.6,91,64,38,30.36,30.03,20,5,21,0.00